createdAt,value
2016-11-23T00:00:41.211Z,923.98
2016-11-23T00:01:54.802Z,923.99
2016-11-23T00:03:08.371Z,924
2016-11-23T00:04:21.257Z,924.03
2016-11-23T00:05:35.734Z,924.01
2016-11-23T00:06:48.163Z,924.02
2016-11-23T00:08:01.164Z,924.02
2016-11-23T00:09:13.650Z,924.02
2016-11-23T00:10:26.675Z,924.05
2016-11-23T00:11:39.700Z,924.05
2016-11-23T00:12:52.698Z,924.04
2016-11-23T00:14:06.221Z,924.04
2016-11-23T00:15:19.188Z,924.07
2016-11-23T00:16:32.286Z,924.06
2016-11-23T00:17:44.215Z,924.08
2016-11-23T00:18:57.762Z,924.05
2016-11-23T00:20:10.255Z,924.01
2016-11-23T00:21:23.300Z,924
2016-11-23T00:22:36.387Z,923.96
2016-11-23T00:23:49.455Z,923.92
2016-11-23T00:25:01.960Z,924.01
2016-11-23T00:26:15.701Z,924
2016-11-23T00:27:28.695Z,924.02
2016-11-23T00:28:41.191Z,924.14
2016-11-23T00:29:54.260Z,924.14
2016-11-23T00:31:07.250Z,924.13
2016-11-23T00:32:19.762Z,924.17
2016-11-23T00:33:32.249Z,924.2
2016-11-23T00:34:44.790Z,924.15
2016-11-23T00:35:56.778Z,924.17
2016-11-23T00:37:09.766Z,924.17
2016-11-23T00:38:22.243Z,924.18
2016-11-23T00:39:35.834Z,924.14
2016-11-23T00:40:48.900Z,924.1
2016-11-23T00:42:01.916Z,924.08
2016-11-23T00:43:14.388Z,924.1
2016-11-23T00:44:27.329Z,924.1
2016-11-23T00:45:38.729Z,924.08
2016-11-23T00:46:52.298Z,924.1
2016-11-23T00:48:04.759Z,924.1
2016-11-23T00:49:17.750Z,924.06
2016-11-23T00:50:30.265Z,923.99
2016-11-23T00:51:43.256Z,923.98
2016-11-23T00:52:54.665Z,923.94
2016-11-23T00:54:08.165Z,923.82
2016-11-23T00:55:21.213Z,923.79
2016-11-23T00:56:33.722Z,923.75
2016-11-23T00:57:46.716Z,923.75
2016-11-23T00:58:58.653Z,923.75
2016-11-23T01:00:11.078Z,923.72
2016-11-23T01:01:23.659Z,923.73
2016-11-23T01:02:37.190Z,923.78
2016-11-23T01:03:49.701Z,923.78
2016-11-23T01:05:02.151Z,923.76
2016-11-23T01:06:14.601Z,923.78
2016-11-23T01:07:27.164Z,923.72
2016-11-23T01:08:40.740Z,923.64
2016-11-23T01:09:54.304Z,923.67
2016-11-23T01:11:06.803Z,923.64
2016-11-23T01:12:19.842Z,923.66
2016-11-23T01:13:33.417Z,923.66
2016-11-23T01:14:45.874Z,923.57
2016-11-23T01:15:57.782Z,923.59
2016-11-23T01:17:09.699Z,923.55
2016-11-23T01:18:21.656Z,923.56
2016-11-23T01:19:35.137Z,923.52
2016-11-23T01:20:48.698Z,923.51
2016-11-23T01:22:00.637Z,923.48
2016-11-23T01:23:14.168Z,923.49
2016-11-23T01:24:27.683Z,923.48
2016-11-23T01:25:40.696Z,923.52
2016-11-23T01:26:52.620Z,923.54
2016-11-23T01:28:05.122Z,923.52
2016-11-23T01:29:18.100Z,923.46
2016-11-23T01:30:31.050Z,923.49
2016-11-23T01:31:42.986Z,923.55
2016-11-23T01:32:55.473Z,923.43
2016-11-23T01:34:07.409Z,923.46
2016-11-23T01:35:20.473Z,923.46
2016-11-23T01:36:33.007Z,923.48
2016-11-23T01:37:45.735Z,923.49
2016-11-23T01:38:58.747Z,923.46
2016-11-23T01:40:12.217Z,923.47
2016-11-23T01:41:25.266Z,923.48
2016-11-23T01:42:38.829Z,923.5
2016-11-23T01:43:51.330Z,923.53
2016-11-23T01:45:02.741Z,923.48
2016-11-23T01:46:15.709Z,923.45
2016-11-23T01:47:28.196Z,923.42
2016-11-23T01:48:41.226Z,923.45
2016-11-23T01:49:54.912Z,923.46
2016-11-23T01:51:07.957Z,923.47
2016-11-23T01:52:19.927Z,923.49
2016-11-23T01:53:32.966Z,923.49
2016-11-23T01:54:46.532Z,923.47
2016-11-23T01:56:01.338Z,923.45
2016-11-23T01:57:14.321Z,923.44
2016-11-23T01:58:26.834Z,923.39
2016-11-23T01:59:39.899Z,923.35
2016-11-23T02:00:52.973Z,923.37
2016-11-23T02:02:06.795Z,923.33
2016-11-23T02:03:21.869Z,923.34
2016-11-23T02:04:34.889Z,923.4
2016-11-23T02:05:47.925Z,923.29
2016-11-23T02:07:01.541Z,923.3
2016-11-23T02:08:14.026Z,923.24
2016-11-23T02:09:26.585Z,923.22
2016-11-23T02:10:40.160Z,923.14
2016-11-23T02:11:53.170Z,923.13
2016-11-23T02:13:06.826Z,923.08
2016-11-23T02:14:20.396Z,923.05
2016-11-23T02:15:33.939Z,923.04
2016-11-23T02:16:46.381Z,923.07
2016-11-23T02:17:58.876Z,923.06
2016-11-23T02:19:12.420Z,923.05
2016-11-23T02:20:25.451Z,923.07
2016-11-23T02:21:37.929Z,923.04
2016-11-23T02:22:50.874Z,923.01
2016-11-23T02:24:03.815Z,923.08
2016-11-23T02:25:16.313Z,923.03
2016-11-23T02:26:29.329Z,923.02
2016-11-23T02:27:42.946Z,923.06
2016-11-23T02:28:56.525Z,922.97
2016-11-23T02:30:09.567Z,923.02
2016-11-23T02:31:21.503Z,922.96
2016-11-23T02:32:33.960Z,922.97
2016-11-23T02:33:46.958Z,922.95
2016-11-23T02:34:59.999Z,922.89
2016-11-23T02:36:13.024Z,922.9
2016-11-23T02:37:25.997Z,922.88
2016-11-23T02:38:38.963Z,922.84
2016-11-23T02:39:51.426Z,922.78
2016-11-23T02:41:03.954Z,922.82
2016-11-23T02:42:16.486Z,922.79
2016-11-23T02:43:29.492Z,922.75
2016-11-23T02:44:42.066Z,922.75
2016-11-23T02:45:55.651Z,922.76
2016-11-23T02:47:08.183Z,922.8
2016-11-23T02:48:20.628Z,922.75
2016-11-23T02:49:33.676Z,922.78
2016-11-23T02:50:46.688Z,922.84
2016-11-23T02:51:58.610Z,922.85
2016-11-23T02:53:11.638Z,922.84
2016-11-23T02:54:23.606Z,922.85
2016-11-23T02:55:36.587Z,922.85
2016-11-23T02:56:49.641Z,922.88
2016-11-23T02:58:02.130Z,922.88
2016-11-23T02:59:15.650Z,922.87
2016-11-23T03:00:27.631Z,922.79
2016-11-23T03:01:41.427Z,922.78
2016-11-23T03:02:53.382Z,922.76
2016-11-23T03:04:06.983Z,922.7
2016-11-23T03:05:20.475Z,922.71
2016-11-23T03:06:32.947Z,922.66
2016-11-23T03:07:45.395Z,922.64
2016-11-23T03:08:58.981Z,922.71
2016-11-23T03:10:12.016Z,922.68
2016-11-23T03:11:24.469Z,922.63
2016-11-23T03:12:36.985Z,922.68
2016-11-23T03:13:51.512Z,922.7
2016-11-23T03:15:04.571Z,922.76
2016-11-23T03:16:17.092Z,922.77
2016-11-23T03:17:28.563Z,922.72
2016-11-23T03:18:42.128Z,922.66
2016-11-23T03:19:55.145Z,922.62
2016-11-23T03:21:07.619Z,922.63
2016-11-23T03:22:21.146Z,922.63
2016-11-23T03:23:34.202Z,922.54
2016-11-23T03:24:46.736Z,922.5
2016-11-23T03:25:59.235Z,922.44
2016-11-23T03:27:11.718Z,922.41
2016-11-23T03:28:24.671Z,922.35
2016-11-23T03:29:37.788Z,922.37
2016-11-23T03:30:51.330Z,922.32
2016-11-23T03:32:04.366Z,922.32
2016-11-23T03:33:17.459Z,922.29
2016-11-23T03:34:30.440Z,922.32
2016-11-23T03:35:42.955Z,922.34
2016-11-23T03:36:54.903Z,922.36
2016-11-23T03:38:07.417Z,922.32
2016-11-23T03:39:19.856Z,922.4
2016-11-23T03:40:32.318Z,922.35
2016-11-23T03:41:45.294Z,922.39
2016-11-23T03:42:57.808Z,922.41
2016-11-23T03:44:11.358Z,922.44
2016-11-23T03:45:23.286Z,922.45
2016-11-23T03:46:35.796Z,922.45
2016-11-23T03:47:48.246Z,922.42
2016-11-23T03:49:01.250Z,922.42
2016-11-23T03:50:13.833Z,922.35
2016-11-23T03:51:26.809Z,922.33
2016-11-23T03:52:40.414Z,922.33
2016-11-23T03:53:53.926Z,922.28
2016-11-23T03:55:07.451Z,922.26
2016-11-23T03:56:21.042Z,922.27
2016-11-23T03:57:34.599Z,922.2
2016-11-23T03:58:47.113Z,922.19
2016-11-23T03:59:59.055Z,922.18
2016-11-23T04:01:12.543Z,922.15
2016-11-23T04:02:25.543Z,922.15
2016-11-23T04:03:39.103Z,922.13
2016-11-23T04:04:51.054Z,922.1
2016-11-23T04:06:04.055Z,922.08
2016-11-23T04:07:16.577Z,922.04
2016-11-23T04:08:30.121Z,922
2016-11-23T04:09:43.157Z,921.98
2016-11-23T04:10:56.681Z,921.98
2016-11-23T04:12:09.664Z,921.94
2016-11-23T04:13:22.120Z,921.97
2016-11-23T04:14:34.633Z,921.95
2016-11-23T04:15:47.190Z,921.91
2016-11-23T04:16:59.700Z,921.89
2016-11-23T04:18:13.243Z,921.92
2016-11-23T04:19:26.254Z,921.9
2016-11-23T04:20:38.769Z,921.88
2016-11-23T04:21:51.251Z,921.94
2016-11-23T04:23:04.277Z,921.89
2016-11-23T04:24:17.256Z,921.9
2016-11-23T04:25:29.976Z,921.91
2016-11-23T04:26:42.485Z,921.85
2016-11-23T04:27:54.483Z,921.9
2016-11-23T04:29:07.465Z,921.84
2016-11-23T04:30:19.974Z,921.84
2016-11-23T04:31:32.971Z,921.82
2016-11-23T04:32:44.974Z,921.8
2016-11-23T04:33:57.463Z,921.78
2016-11-23T04:35:11.011Z,921.77
2016-11-23T04:36:23.994Z,921.76
2016-11-23T04:37:37.564Z,921.72
2016-11-23T04:38:49.516Z,921.69
2016-11-23T04:40:01.965Z,921.66
2016-11-23T04:41:14.990Z,921.66
2016-11-23T04:42:26.986Z,921.6
2016-11-23T04:43:39.981Z,921.57
2016-11-23T04:44:52.993Z,921.59
2016-11-23T04:46:06.541Z,921.57
2016-11-23T04:47:19.462Z,921.56
2016-11-23T04:48:32.022Z,921.54
2016-11-23T04:49:45.562Z,921.5
2016-11-23T04:50:58.000Z,921.51
2016-11-23T04:52:09.975Z,921.49
2016-11-23T04:53:22.467Z,921.46
2016-11-23T04:54:35.465Z,921.51
2016-11-23T04:55:48.468Z,921.55
2016-11-23T04:57:00.935Z,921.51
2016-11-23T04:58:13.390Z,921.48
2016-11-23T04:59:25.313Z,921.47
2016-11-23T05:00:37.300Z,921.47
2016-11-23T05:01:50.845Z,921.43
2016-11-23T05:03:03.367Z,921.39
2016-11-23T05:04:15.857Z,921.38
2016-11-23T05:05:28.357Z,921.37
2016-11-23T05:06:40.870Z,921.37
2016-11-23T05:07:53.832Z,921.38
2016-11-23T05:09:07.442Z,921.43
2016-11-23T05:10:20.975Z,921.42
2016-11-23T05:11:32.983Z,921.42
2016-11-23T05:12:45.496Z,921.4
2016-11-23T05:13:57.937Z,921.41
2016-11-23T05:15:11.552Z,921.41
2016-11-23T05:16:24.015Z,921.42
2016-11-23T05:17:35.925Z,921.39
2016-11-23T05:18:48.939Z,921.36
2016-11-23T05:20:02.514Z,921.37
2016-11-23T05:21:15.478Z,921.36
2016-11-23T05:22:28.528Z,921.36
2016-11-23T05:23:41.580Z,921.39
2016-11-23T05:24:52.971Z,921.43
2016-11-23T05:26:06.042Z,921.4
2016-11-23T05:27:19.666Z,921.42
2016-11-23T05:28:32.681Z,921.45
2016-11-23T05:29:46.214Z,921.46
2016-11-23T05:30:59.250Z,921.5
2016-11-23T05:32:12.765Z,921.52
2016-11-23T05:33:24.762Z,921.55
2016-11-23T05:34:38.334Z,921.52
2016-11-23T05:35:50.859Z,921.54
2016-11-23T05:37:03.857Z,921.56
2016-11-23T05:38:17.395Z,921.57
2016-11-23T05:39:30.418Z,921.61
2016-11-23T05:40:43.392Z,921.62
2016-11-23T05:41:56.386Z,921.61
2016-11-23T05:43:09.339Z,921.65
2016-11-23T05:44:22.289Z,921.61
2016-11-23T05:45:34.789Z,921.57
2016-11-23T05:46:48.286Z,921.6
2016-11-23T05:48:00.737Z,921.58
2016-11-23T05:49:13.718Z,921.58
2016-11-23T05:50:26.728Z,921.55
2016-11-23T05:51:40.266Z,921.57
2016-11-23T05:52:52.758Z,921.59
2016-11-23T05:54:05.229Z,921.6
2016-11-23T05:55:18.231Z,921.64
2016-11-23T05:56:30.783Z,921.66
2016-11-23T05:57:43.283Z,921.61
2016-11-23T05:58:56.319Z,921.65
2016-11-23T06:00:08.820Z,921.69
2016-11-23T06:01:20.767Z,921.67
2016-11-23T06:02:32.171Z,921.64
2016-11-23T06:03:44.094Z,921.66
2016-11-23T06:04:57.160Z,921.65
2016-11-23T06:06:09.669Z,921.61
2016-11-23T06:07:23.211Z,921.59
2016-11-23T06:08:36.289Z,921.58
2016-11-23T06:09:49.307Z,921.59
2016-11-23T06:11:02.364Z,921.56
2016-11-23T06:12:14.828Z,921.57
2016-11-23T06:13:27.891Z,921.58
2016-11-23T06:14:40.905Z,921.57
2016-11-23T06:15:53.413Z,921.59
2016-11-23T06:17:06.932Z,921.59
2016-11-23T06:18:18.930Z,921.59
2016-11-23T06:19:32.026Z,921.61
2016-11-23T06:20:44.521Z,921.62
2016-11-23T06:21:56.493Z,921.6
2016-11-23T06:23:10.079Z,921.57
2016-11-23T06:24:21.993Z,921.57
2016-11-23T06:25:35.033Z,921.52
2016-11-23T06:26:48.008Z,921.59
2016-11-23T06:28:01.540Z,921.54
2016-11-23T06:29:14.500Z,921.52
2016-11-23T06:30:26.987Z,921.59
2016-11-23T06:31:40.562Z,921.58
2016-11-23T06:32:53.084Z,921.62
2016-11-23T06:34:06.089Z,921.58
2016-11-23T06:35:19.699Z,921.55
2016-11-23T06:36:32.698Z,921.59
2016-11-23T06:37:44.644Z,921.57
2016-11-23T06:38:57.632Z,921.54
2016-11-23T06:40:10.655Z,921.55
2016-11-23T06:41:24.277Z,921.52
2016-11-23T06:42:36.766Z,921.54
2016-11-23T06:43:49.237Z,921.53
2016-11-23T06:45:01.713Z,921.55
2016-11-23T06:46:15.304Z,921.54
2016-11-23T06:47:27.339Z,921.58
2016-11-23T06:48:39.884Z,921.66
2016-11-23T06:49:51.826Z,921.63
2016-11-23T06:51:03.830Z,921.67
2016-11-23T06:52:15.791Z,921.72
2016-11-23T06:53:28.271Z,921.7
2016-11-23T06:54:40.767Z,921.66
2016-11-23T06:55:54.250Z,921.67
2016-11-23T06:57:07.802Z,921.64
2016-11-23T06:58:20.228Z,921.67
2016-11-23T06:59:32.713Z,921.72
2016-11-23T07:00:45.737Z,921.74
2016-11-23T07:01:56.629Z,921.77
2016-11-23T07:03:09.621Z,921.77
2016-11-23T07:04:22.130Z,921.8
2016-11-23T07:05:34.690Z,921.79
2016-11-23T07:06:46.706Z,921.76
2016-11-23T07:07:59.705Z,921.76
2016-11-23T07:09:12.239Z,921.76
2016-11-23T07:10:24.759Z,921.74
2016-11-23T07:11:36.798Z,921.76
2016-11-23T07:12:49.312Z,921.72
2016-11-23T07:14:01.254Z,921.71
2016-11-23T07:15:14.290Z,921.66
2016-11-23T07:16:27.269Z,921.66
2016-11-23T07:17:39.772Z,921.67
2016-11-23T07:18:53.366Z,921.66
2016-11-23T07:20:06.894Z,921.66
2016-11-23T07:21:19.905Z,921.65
2016-11-23T07:22:31.305Z,921.62
2016-11-23T07:23:43.785Z,921.59
2016-11-23T07:24:56.278Z,921.61
2016-11-23T07:26:08.222Z,921.63
2016-11-23T07:27:20.689Z,921.68
2016-11-23T07:28:33.152Z,921.68
2016-11-23T07:29:46.761Z,921.77
2016-11-23T07:30:59.218Z,921.71
2016-11-23T07:32:12.230Z,921.75
2016-11-23T07:33:25.711Z,921.74
2016-11-23T07:34:38.173Z,921.78
2016-11-23T07:35:50.734Z,921.83
2016-11-23T07:37:03.255Z,921.86
2016-11-23T07:38:16.277Z,921.87
2016-11-23T07:39:29.305Z,921.88
2016-11-23T07:40:42.327Z,921.86
2016-11-23T07:41:55.976Z,921.84
2016-11-23T07:43:09.543Z,921.86
2016-11-23T07:44:22.604Z,921.88
2016-11-23T07:45:35.091Z,921.94
2016-11-23T07:46:47.110Z,921.92
2016-11-23T07:48:00.116Z,921.92
2016-11-23T07:49:13.114Z,921.94
2016-11-23T07:50:25.055Z,921.94
2016-11-23T07:51:37.022Z,921.92
2016-11-23T07:52:50.043Z,921.94
2016-11-23T07:54:02.524Z,921.95
2016-11-23T07:55:15.570Z,921.92
2016-11-23T07:56:27.540Z,921.89
2016-11-23T07:57:40.010Z,921.88
2016-11-23T07:58:52.485Z,921.91
2016-11-23T08:00:05.487Z,921.93
2016-11-23T08:01:18.982Z,921.92
2016-11-23T08:02:32.522Z,921.96
2016-11-23T08:03:45.529Z,921.94
2016-11-23T08:04:58.563Z,921.98
2016-11-23T08:06:10.521Z,921.99
2016-11-23T08:07:22.959Z,921.98
2016-11-23T08:08:35.450Z,922.01
2016-11-23T08:09:49.013Z,921.97
2016-11-23T08:11:02.567Z,921.97
2016-11-23T08:12:16.076Z,921.99
2016-11-23T08:13:29.041Z,921.98
2016-11-23T08:14:41.995Z,922.01
2016-11-23T08:15:55.010Z,922.01
2016-11-23T08:17:06.427Z,921.99
2016-11-23T08:18:18.457Z,921.98
2016-11-23T08:19:31.419Z,921.97
2016-11-23T08:20:43.877Z,922
2016-11-23T08:21:55.882Z,922.05
2016-11-23T08:23:08.900Z,922.1
2016-11-23T08:24:21.952Z,922.1
2016-11-23T08:25:34.449Z,922.13
2016-11-23T08:26:46.380Z,922.16
2016-11-23T08:27:58.345Z,922.15
2016-11-23T08:29:10.309Z,922.14
2016-11-23T08:30:23.812Z,922.16
2016-11-23T08:31:37.312Z,922.16
2016-11-23T08:32:50.311Z,922.1
2016-11-23T08:34:03.808Z,922.14
2016-11-23T08:35:15.778Z,922.1
2016-11-23T08:36:27.219Z,922.11
2016-11-23T08:37:39.664Z,922.15
2016-11-23T08:38:52.167Z,922.17
2016-11-23T08:40:04.708Z,922.12
2016-11-23T08:41:17.199Z,922.17
2016-11-23T08:42:30.273Z,922.18
2016-11-23T08:43:42.248Z,922.17
2016-11-23T08:44:55.240Z,922.17
2016-11-23T08:46:07.737Z,922.24
2016-11-23T08:47:20.229Z,922.28
2016-11-23T08:48:33.720Z,922.25
2016-11-23T08:49:46.186Z,922.25
2016-11-23T08:50:59.159Z,922.25
2016-11-23T08:52:11.685Z,922.28
2016-11-23T08:53:24.710Z,922.28
2016-11-23T08:54:37.187Z,922.32
2016-11-23T08:55:50.715Z,922.34
2016-11-23T08:57:04.270Z,922.39
2016-11-23T08:58:17.329Z,922.44
2016-11-23T08:59:29.809Z,922.38
2016-11-23T09:00:42.291Z,922.41
2016-11-23T09:01:54.797Z,922.4
2016-11-23T09:03:07.746Z,922.43
2016-11-23T09:04:20.208Z,922.44
2016-11-23T09:05:31.660Z,922.46
2016-11-23T09:06:44.148Z,922.5
2016-11-23T09:07:57.655Z,922.49
2016-11-23T09:09:10.648Z,922.48
2016-11-23T09:10:22.094Z,922.48
2016-11-23T09:11:35.131Z,922.42
2016-11-23T09:12:48.114Z,922.41
2016-11-23T09:14:01.656Z,922.4
2016-11-23T09:15:14.177Z,922.41
2016-11-23T09:16:27.226Z,922.38
2016-11-23T09:17:40.285Z,922.41
2016-11-23T09:18:52.800Z,922.44
2016-11-23T09:20:05.789Z,922.43
2016-11-23T09:21:18.788Z,922.53
2016-11-23T09:22:31.290Z,922.52
2016-11-23T09:23:43.813Z,922.55
2016-11-23T09:24:56.294Z,922.53
2016-11-23T09:26:08.318Z,922.5
2016-11-23T09:27:21.312Z,922.59
2016-11-23T09:28:33.314Z,922.56
2016-11-23T09:29:46.379Z,922.62
2016-11-23T09:30:58.910Z,922.57
2016-11-23T09:32:11.385Z,922.62
2016-11-23T09:33:22.792Z,922.65
2016-11-23T09:34:35.772Z,922.71
2016-11-23T09:35:49.297Z,922.7
2016-11-23T09:37:01.780Z,922.73
2016-11-23T09:38:14.320Z,922.69
2016-11-23T09:39:26.859Z,922.68
2016-11-23T09:40:39.841Z,922.71
2016-11-23T09:41:53.356Z,922.71
2016-11-23T09:43:05.339Z,922.75
2016-11-23T09:44:17.812Z,922.76
2016-11-23T09:45:29.270Z,922.78
2016-11-23T09:46:42.827Z,922.82
2016-11-23T09:47:55.365Z,922.83
2016-11-23T09:49:08.889Z,922.85
2016-11-23T09:50:22.351Z,922.88
2016-11-23T09:51:34.347Z,922.86
2016-11-23T09:52:47.447Z,922.86
2016-11-23T09:54:00.959Z,922.87
2016-11-23T09:55:13.953Z,922.91
2016-11-23T09:56:25.927Z,922.9
2016-11-23T09:57:38.405Z,922.91
2016-11-23T09:58:51.961Z,922.9
2016-11-23T10:00:04.424Z,922.85
2016-11-23T10:01:16.337Z,922.81
2016-11-23T10:02:28.810Z,922.77
2016-11-23T10:03:41.796Z,922.77
2016-11-23T10:04:53.756Z,922.75
2016-11-23T10:06:05.733Z,922.77
2016-11-23T10:07:18.227Z,922.79
2016-11-23T10:08:31.210Z,922.8
2016-11-23T10:09:43.745Z,922.83
2016-11-23T10:10:57.309Z,922.83
2016-11-23T10:12:10.917Z,922.84
2016-11-23T10:13:22.926Z,922.86
2016-11-23T10:14:36.455Z,922.86
2016-11-23T10:15:50.043Z,922.87
2016-11-23T10:17:01.520Z,922.86
2016-11-23T10:18:15.013Z,922.89
2016-11-23T10:19:27.504Z,922.95
2016-11-23T10:20:40.506Z,922.99
2016-11-23T10:21:53.557Z,923.03
2016-11-23T10:23:06.530Z,923.1
2016-11-23T10:24:19.037Z,923.05
2016-11-23T10:25:31.540Z,923
2016-11-23T10:26:44.048Z,922.88
2016-11-23T10:27:56.495Z,922.83
2016-11-23T10:29:09.522Z,922.86
2016-11-23T10:30:21.469Z,922.89
2016-11-23T10:31:34.034Z,922.97
2016-11-23T10:32:47.055Z,922.99
2016-11-23T10:33:59.051Z,923.01
2016-11-23T10:35:11.024Z,923.03
2016-11-23T10:36:22.967Z,923
2016-11-23T10:37:35.943Z,923.04
2016-11-23T10:38:48.440Z,923.02
2016-11-23T10:40:01.495Z,923.01
2016-11-23T10:41:14.561Z,923.05
2016-11-23T10:42:27.034Z,923.06
2016-11-23T10:43:39.984Z,923.06
2016-11-23T10:44:53.094Z,923.08
2016-11-23T10:46:06.106Z,923.11
2016-11-23T10:47:18.629Z,923.13
2016-11-23T10:48:31.615Z,923.15
2016-11-23T10:49:44.101Z,923.13
2016-11-23T10:50:57.137Z,923.11
2016-11-23T10:52:10.117Z,923.08
2016-11-23T10:53:23.639Z,923.08
2016-11-23T10:54:35.609Z,923.04
2016-11-23T10:55:48.650Z,923.06
2016-11-23T10:57:00.645Z,923.05
2016-11-23T10:58:13.710Z,923.1
2016-11-23T10:59:26.663Z,923.12
2016-11-23T11:00:40.193Z,923.17
2016-11-23T11:01:53.269Z,923.2
2016-11-23T11:03:06.785Z,923.23
2016-11-23T11:04:19.770Z,923.24
2016-11-23T11:05:32.835Z,923.29
2016-11-23T11:06:46.439Z,923.31
2016-11-23T11:07:59.021Z,923.32
2016-11-23T11:09:11.524Z,923.34
2016-11-23T11:10:24.541Z,923.37
2016-11-23T11:11:37.012Z,923.36
2016-11-23T11:12:50.027Z,923.43
2016-11-23T11:14:01.486Z,923.44
2016-11-23T11:15:13.431Z,923.45
2016-11-23T11:16:27.050Z,923.45
2016-11-23T11:17:40.107Z,923.37
2016-11-23T11:18:53.117Z,923.36
2016-11-23T11:20:04.536Z,923.4
2016-11-23T11:21:17.085Z,923.39
2016-11-23T11:22:29.598Z,923.44
2016-11-23T11:23:43.136Z,923.41
2016-11-23T11:24:56.710Z,923.41
2016-11-23T11:26:09.797Z,923.42
2016-11-23T11:27:21.785Z,923.41
2016-11-23T11:28:35.238Z,923.45
2016-11-23T11:29:48.739Z,923.45
2016-11-23T11:31:01.766Z,923.46
2016-11-23T11:32:14.238Z,923.48
2016-11-23T11:33:26.181Z,923.5
2016-11-23T11:34:39.133Z,923.47
2016-11-23T11:35:52.672Z,923.5
2016-11-23T11:37:05.152Z,923.49
2016-11-23T11:38:17.697Z,923.51
2016-11-23T11:39:30.679Z,923.54
2016-11-23T11:40:43.784Z,923.56
2016-11-23T11:41:56.766Z,923.61
2016-11-23T11:43:09.380Z,923.6
2016-11-23T11:44:21.337Z,923.55
2016-11-23T11:45:33.869Z,923.57
2016-11-23T11:46:46.828Z,923.56
2016-11-23T11:47:59.401Z,923.53
2016-11-23T11:49:11.869Z,923.53
2016-11-23T11:50:24.879Z,923.55
2016-11-23T11:51:36.828Z,923.53
2016-11-23T11:52:49.798Z,923.5
2016-11-23T11:54:03.293Z,923.5
2016-11-23T11:55:16.240Z,923.55
2016-11-23T11:56:28.718Z,923.53
2016-11-23T11:57:40.714Z,923.49
2016-11-23T11:58:52.705Z,923.52
2016-11-23T12:00:05.793Z,923.49
2016-11-23T12:01:17.736Z,923.56
2016-11-23T12:02:31.343Z,923.53
2016-11-23T12:03:43.844Z,923.53
2016-11-23T12:04:55.818Z,923.56
2016-11-23T12:06:08.319Z,923.6
2016-11-23T12:07:21.866Z,923.61
2016-11-23T12:08:34.408Z,923.62
2016-11-23T12:09:47.465Z,923.63
2016-11-23T12:10:59.716Z,923.68
2016-11-23T12:12:12.750Z,923.67
2016-11-23T12:13:25.236Z,923.66
2016-11-23T12:14:38.268Z,923.6
2016-11-23T12:15:52.114Z,923.64
2016-11-23T12:17:05.115Z,923.69
2016-11-23T12:18:17.571Z,923.72
2016-11-23T12:19:30.594Z,923.66
2016-11-23T12:20:43.633Z,923.73
2016-11-23T12:21:56.642Z,923.67
2016-11-23T12:23:09.131Z,923.68
2016-11-23T12:24:21.058Z,923.67
2016-11-23T12:25:33.566Z,923.7
2016-11-23T12:26:47.132Z,923.69
2016-11-23T12:28:00.728Z,923.68
2016-11-23T12:29:14.363Z,923.69
2016-11-23T12:30:26.904Z,923.7
2016-11-23T12:31:39.407Z,923.68
2016-11-23T12:32:52.994Z,923.62
2016-11-23T12:34:05.917Z,923.61
2016-11-23T12:35:18.944Z,923.56
2016-11-23T12:36:31.417Z,923.57
2016-11-23T12:37:44.471Z,923.59
2016-11-23T12:38:58.055Z,923.57
2016-11-23T12:40:09.496Z,923.49
2016-11-23T12:41:21.964Z,923.49
2016-11-23T12:42:34.534Z,923.46
2016-11-23T12:43:48.111Z,923.41
2016-11-23T12:45:01.222Z,923.34
2016-11-23T12:46:14.291Z,923.35
2016-11-23T12:47:27.842Z,923.34
2016-11-23T12:48:40.908Z,923.28
2016-11-23T12:49:53.426Z,923.27
2016-11-23T12:51:05.948Z,923.27
2016-11-23T12:52:17.939Z,923.28
2016-11-23T12:53:28.813Z,923.27
2016-11-23T12:54:42.348Z,923.32
2016-11-23T12:55:54.855Z,923.32
2016-11-23T12:57:07.891Z,923.29
2016-11-23T12:58:20.461Z,923.33
2016-11-23T12:59:32.951Z,923.29
2016-11-23T13:00:45.926Z,923.29
2016-11-23T13:01:57.918Z,923.3
2016-11-23T13:03:09.908Z,923.29
2016-11-23T13:04:22.947Z,923.33
2016-11-23T13:05:35.495Z,923.41
2016-11-23T13:06:48.482Z,923.35
2016-11-23T13:08:01.053Z,923.4
2016-11-23T13:09:14.609Z,923.39
2016-11-23T13:10:27.076Z,923.41
2016-11-23T13:11:39.084Z,923.44
2016-11-23T13:12:51.564Z,923.46
2016-11-23T13:14:05.078Z,923.44
2016-11-23T13:15:17.580Z,923.45
2016-11-23T13:16:29.570Z,923.46
2016-11-23T13:17:42.571Z,923.47
2016-11-23T13:18:55.589Z,923.5
2016-11-23T13:20:08.632Z,923.5
2016-11-23T13:21:21.078Z,923.46
2016-11-23T13:22:34.061Z,923.5
2016-11-23T13:23:46.559Z,923.52
2016-11-23T13:24:58.592Z,923.42
2016-11-23T13:26:11.003Z,923.39
2016-11-23T13:27:24.589Z,923.39
2016-11-23T13:28:38.070Z,923.41
2016-11-23T13:29:50.569Z,923.39
2016-11-23T13:31:03.635Z,923.39
2016-11-23T13:32:15.617Z,923.39
2016-11-23T13:33:28.166Z,923.36
2016-11-23T13:34:41.144Z,923.35
2016-11-23T13:35:53.728Z,923.34
2016-11-23T13:37:06.195Z,923.36
2016-11-23T13:38:19.719Z,923.35
2016-11-23T13:39:32.916Z,923.36
2016-11-23T13:40:44.477Z,923.34
2016-11-23T13:41:56.509Z,923.34
2016-11-23T13:43:08.513Z,923.33
2016-11-23T13:44:21.065Z,923.28
2016-11-23T13:45:34.106Z,923.25
2016-11-23T13:46:47.140Z,923.33
2016-11-23T13:47:59.185Z,923.27
2016-11-23T13:49:12.260Z,923.3
2016-11-23T13:50:24.732Z,923.28
2016-11-23T13:51:37.773Z,923.24
2016-11-23T13:52:50.351Z,923.19
2016-11-23T13:54:02.813Z,923.22
2016-11-23T13:55:15.289Z,923.24
2016-11-23T13:56:28.903Z,923.22
2016-11-23T13:57:41.915Z,923.2
2016-11-23T13:58:54.966Z,923.16
2016-11-23T14:00:07.447Z,923.12
2016-11-23T14:01:20.475Z,923.16
2016-11-23T14:02:32.941Z,923.1
2016-11-23T14:03:46.505Z,923.07
2016-11-23T14:04:58.433Z,923.03
2016-11-23T14:06:12.041Z,923.01
2016-11-23T14:07:24.012Z,922.98
2016-11-23T14:08:36.556Z,922.96
2016-11-23T14:09:49.617Z,922.91
2016-11-23T14:11:02.131Z,922.89
2016-11-23T14:12:15.115Z,922.9
2016-11-23T14:13:28.144Z,922.87
2016-11-23T14:14:41.168Z,922.82
2016-11-23T14:15:54.274Z,922.88
2016-11-23T14:17:07.307Z,922.93
2016-11-23T14:18:19.780Z,922.89
2016-11-23T14:19:33.311Z,922.86
2016-11-23T14:20:46.285Z,922.89
2016-11-23T14:21:59.354Z,922.89
2016-11-23T14:23:12.383Z,922.86
2016-11-23T14:24:24.981Z,922.88
2016-11-23T14:25:36.963Z,922.94
2016-11-23T14:26:49.499Z,922.93
2016-11-23T14:28:02.469Z,922.85
2016-11-23T14:29:16.269Z,922.86
2016-11-23T14:30:28.781Z,922.86
2016-11-23T14:31:41.290Z,922.84
2016-11-23T14:32:53.307Z,922.86
2016-11-23T14:34:06.378Z,922.9
2016-11-23T14:35:19.371Z,922.89
2016-11-23T14:36:32.395Z,922.94
2016-11-23T14:37:44.935Z,922.9
2016-11-23T14:38:57.921Z,922.85
2016-11-23T14:40:10.923Z,922.85
2016-11-23T14:41:24.474Z,922.83
2016-11-23T14:42:38.055Z,922.87
2016-11-23T14:43:51.613Z,922.85
2016-11-23T14:45:05.146Z,922.88
2016-11-23T14:46:18.251Z,922.86
2016-11-23T14:47:31.339Z,922.86
2016-11-23T14:48:44.361Z,922.9
2016-11-23T14:49:57.431Z,922.69
2016-11-23T14:51:10.518Z,922.86
2016-11-23T14:52:23.536Z,922.82
2016-11-23T14:53:36.576Z,922.8
2016-11-23T14:54:49.824Z,922.83
2016-11-23T14:56:03.358Z,922.78
2016-11-23T14:57:16.952Z,922.79
2016-11-23T14:58:30.004Z,922.81
2016-11-23T15:00:13.110Z,922.81
2016-11-23T15:01:26.721Z,922.83
2016-11-23T15:02:39.254Z,922.76
2016-11-23T15:03:52.303Z,922.72
2016-11-23T15:05:04.344Z,922.72
2016-11-23T15:06:16.857Z,922.64
2016-11-23T15:07:29.335Z,922.62
2016-11-23T15:08:42.936Z,922.58
2016-11-23T15:09:54.875Z,922.53
2016-11-23T15:11:08.471Z,922.55
2016-11-23T15:12:21.528Z,922.55